INFORMACIÓN METAR y TAF
METAR FOR EDHL
ADDS - METARS form results

(2046 UTC 02 June 2020)
Data provider http://aviationweather.gov/metar/data/
 
Forecast for: EDHL (LUEBECK/BLANKENS, DE)
Text: TAF EDHL 021700Z 0218/0221 06007KT CAVOK
Forecast period: 1800 to 2100 UTC 02 June 2020
Forecast type: FROM: standard forecast or significant change
Winds: from the ENE (60 degrees) at 8 MPH (7 knots; 3.6 m/s)
Visibility: 6 or more miles 10+ km)
Ceiling: unknown
Clouds: missing
Weather: NSW  (no significant weather)

MAPA DE AEROPUERTO

INFORMACIÓN DE PISTA
Pista 07 Longitud 6896 ft Ancho 197 ft
Elevación 53 ft Umbral desplazado 984 ft Rumbo de pista 72
Pista 25 Longitud 6896 ft Ancho 197 ft
Elevación 47 ft Umbral desplazado 0 ft Rumbo de pista 252

FRECUANCIAS DEL AEROPUERTO
Tipo AFIS Nombre BREMEN INF Frecuencia 125.1 MHZ
Tipo ATIS Nombre ATIS Frecuencia 119.925 MHZ
Tipo GND Nombre GND Frecuencia 121.775 MHZ
Tipo INFO Nombre INFO Frecuencia 128.7 MHZ
Tipo RDR Nombre BREMEN RAD Frecuencia 124.225 MHZ
Tipo TWR Nombre TWR Frecuencia 128.7 MHZ

RADIO AYUDAS DEL AEROPUERTO
Tipo VOR Nombre Lubeck Frecuencia 110600 KHZ
Tipo DME Nombre Lubeck Blankensee Frecuencia 115650 KHZ
Tipo NDB Nombre Lubeck Blankensee Frecuencia 394 KHZ